Time;durP1;ratioP1;P1;durP2;ratioP2;P2;SDS_P1;SDS_P2;PMS_P1;PMS_P2;Temp;Humidity;BMP_temperature;BMP_pressure;BME280_temperature;BME280_humidity;BME280_pressure;Samples;Min_cycle;Max_cycle;Signal;HPM_P1;HPM_P2
2023/09/08 00:00:15;;;;;;;5.22;4.05;;;;;;;;;;5024728;28;20196;-64
2023/09/08 00:02:42;;;;;;;4.93;4.00;;;20.00;99.90;;;;;;5060282;28;20216;-64
2023/09/08 00:05:10;;;;;;;4.97;4.20;;;20.00;99.90;;;;;;5053241;28;20310;-64
2023/09/08 00:07:37;;;;;;;6.07;4.03;;;20.00;99.90;;;;;;5054531;28;21190;-64
2023/09/08 00:10:05;;;;;;;6.22;3.65;;;19.90;99.90;;;;;;5061806;28;20197;-64
2023/09/08 00:12:31;;;;;;;4.18;3.70;;;20.20;99.90;;;;;;5044640;28;20205;-64
2023/09/08 00:15:01;;;;;;;6.38;4.32;;;19.90;99.90;;;;;;5022333;28;20422;-64
2023/09/08 00:17:27;;;;;;;4.10;3.65;;;19.80;99.90;;;;;;5046146;28;20200;-64
2023/09/08 00:19:54;;;;;;;4.93;3.80;;;20.10;99.90;;;;;;5048423;28;21514;-64
2023/09/08 00:22:21;;;;;;;4.20;3.80;;;19.80;99.90;;;;;;5059147;28;20196;-65
2023/09/08 00:24:48;;;;;;;4.38;3.65;;;19.80;99.90;;;;;;5046086;28;20214;-64
2023/09/08 00:27:15;;;;;;;4.30;3.70;;;19.80;99.90;;;;;;5046578;28;20445;-64
2023/09/08 00:29:41;;;;;;;4.88;4.00;;;19.80;99.90;;;;;;5021825;28;20212;-64
2023/09/08 00:32:09;;;;;;;4.65;3.78;;;19.80;99.90;;;;;;5047454;28;20192;-64
2023/09/08 00:34:36;;;;;;;4.43;3.47;;;19.80;99.90;;;;;;5046260;28;20236;-64
2023/09/08 00:37:07;;;;;;;7.47;3.90;;;19.80;99.90;;;;;;5055497;28;20213;-64
2023/09/08 00:39:35;;;;;;;5.90;3.90;;;19.90;99.90;;;;;;5043224;28;20202;-64
2023/09/08 00:42:02;;;;;;;3.85;3.45;;;19.20;99.90;;;;;;5045926;28;20208;-64
2023/09/08 00:44:29;;;;;;;6.43;3.85;;;19.70;99.90;;;;;;5056334;28;20663;-64
2023/09/08 00:46:56;;;;;;;5.63;4.30;;;19.70;99.90;;;;;;5010554;28;20212;-64
2023/09/08 00:49:25;;;;;;;4.45;4.00;;;20.20;99.90;;;;;;5052615;28;20200;-64
2023/09/08 00:51:52;;;;;;;4.53;3.70;;;19.70;99.90;;;;;;5045482;28;20205;-64
2023/09/08 00:54:19;;;;;;;4.38;3.95;;;19.70;99.90;;;;;;5047343;28;20234;-64
2023/09/08 00:56:47;;;;;;;5.40;3.60;;;19.70;99.90;;;;;;5054475;28;20196;-64
2023/09/08 00:59:14;;;;;;;6.60;3.75;;;19.70;99.90;;;;;;5047614;28;20200;-64
2023/09/08 01:01:41;;;;;;;4.88;3.90;;;19.60;99.90;;;;;;5019653;28;21048;-64
2023/09/08 01:04:08;;;;;;;4.05;3.53;;;19.60;99.90;;;;;;5045572;28;20208;-64
2023/09/08 01:06:37;;;;;;;5.15;3.72;;;19.40;99.90;;;;;;5043195;28;20215;-64
2023/09/08 01:09:05;;;;;;;6.25;4.05;;;19.70;99.90;;;;;;5057154;28;20296;-64
2023/09/08 01:11:32;;;;;;;6.45;3.95;;;19.60;99.90;;;;;;5045699;28;20201;-64
2023/09/08 01:13:59;;;;;;;10.50;4.13;;;19.60;99.90;;;;;;5045855;28;20227;-65
2023/09/08 01:16:25;;;;;;;8.10;4.20;;;19.50;99.90;;;;;;5055347;28;20229;-64
2023/09/08 01:18:53;;;;;;;7.75;4.00;;;19.80;99.90;;;;;;5011553;28;21049;-64
2023/09/08 01:21:53;;;;;;;5.53;4.28;;;19.50;99.90;;;;;;5054075;28;20752;-64
2023/09/08 01:24:39;;;;;;;7.40;4.40;;;19.50;99.90;;;;;;5054829;28;20200;-64
2023/09/08 01:27:09;;;;;;;4.28;3.78;;;19.50;99.90;;;;;;5053723;28;20203;-65
2023/09/08 01:29:38;;;;;;;5.32;3.92;;;19.40;99.90;;;;;;5042963;28;20201;-65
2023/09/08 01:32:05;;;;;;;6.22;3.63;;;19.40;99.90;;;;;;5053225;28;20192;-64
2023/09/08 01:34:33;;;;;;;5.00;3.95;;;19.50;99.90;;;;;;5008053;28;20232;-66
2023/09/08 01:37:03;;;;;;;8.20;4.65;;;19.30;99.90;;;;;;5048230;28;20220;-65
2023/09/08 01:39:30;;;;;;;4.57;3.88;;;19.30;99.90;;;;;;5055700;28;20205;-65
2023/09/08 01:41:57;;;;;;;5.82;4.32;;;19.30;99.90;;;;;;5042095;28;20208;-65
2023/09/08 01:44:25;;;;;;;5.03;3.88;;;19.20;99.90;;;;;;5049927;28;20196;-65
2023/09/08 01:46:56;;;;;;;6.38;4.80;;;19.20;99.90;;;;;;5046635;28;20226;-65
2023/09/08 01:49:23;;;;;;;4.38;3.97;;;18.20;99.90;;;;;;5022845;28;20213;-65
2023/09/08 01:51:50;;;;;;;4.82;4.30;;;19.40;99.90;;;;;;5034837;28;20201;-65
2023/09/08 01:54:17;;;;;;;5.70;4.65;;;19.10;99.90;;;;;;5056091;28;20236;-65
2023/09/08 01:56:44;;;;;;;5.15;4.57;;;19.10;99.90;;;;;;5040619;28;20240;-65
2023/09/08 01:59:10;;;;;;;5.13;4.13;;;19.10;99.90;;;;;;5049314;28;20207;-65
2023/09/08 02:01:39;;;;;;;6.43;4.20;;;19.10;99.90;;;;;;5043529;28;20218;-65
2023/09/08 02:04:06;;;;;;;5.93;4.70;;;19.10;99.90;;;;;;5018826;28;20682;-65
2023/09/08 02:06:33;;;;;;;4.40;3.90;;;19.00;99.90;;;;;;5043501;28;20325;-65
2023/09/08 02:09:00;;;;;;;8.20;4.25;;;18.90;99.90;;;;;;5052566;28;20203;-64
2023/09/08 02:11:27;;;;;;;11.90;4.28;;;18.60;99.90;;;;;;5054842;28;20592;-65
2023/09/08 02:13:53;;;;;;;6.80;5.05;;;18.90;99.90;;;;;;5043168;28;20223;-65
2023/09/08 02:16:21;;;;;;;8.23;4.40;;;;;;;;;;5043907;28;20286;-65
2023/09/08 02:18:49;;;;;;;7.82;3.88;;;18.90;99.90;;;;;;5047267;28;20211;-65
2023/09/08 02:21:15;;;;;;;5.38;4.30;;;18.90;99.90;;;;;;5011349;28;20214;-65
2023/09/08 02:23:42;;;;;;;5.80;4.50;;;18.80;99.90;;;;;;5052796;28;20201;-64
2023/09/08 02:26:09;;;;;;;6.28;4.10;;;18.80;99.90;;;;;;5056907;28;20193;-64
2023/09/08 02:28:36;;;;;;;6.80;4.35;;;18.80;99.90;;;;;;5046449;28;20975;-65
2023/09/08 02:31:02;;;;;;;4.95;4.18;;;18.80;99.90;;;;;;5046328;28;20203;-65
2023/09/08 02:33:29;;;;;;;6.13;4.32;;;18.80;99.90;;;;;;5053568;28;20197;-65
2023/09/08 02:36:03;;;;;;;5.28;4.32;;;18.90;99.90;;;;;;5021403;28;20843;-64
2023/09/08 02:38:29;;;;;;;4.75;4.28;;;18.80;99.90;;;;;;5045383;28;20200;-65
2023/09/08 02:40:56;;;;;;;4.53;3.80;;;18.80;99.90;;;;;;5052996;28;20212;-64
2023/09/08 02:43:23;;;;;;;5.20;3.78;;;18.80;99.90;;;;;;5052314;28;20196;-64
2023/09/08 02:45:50;;;;;;;6.07;4.60;;;19.00;99.90;;;;;;5035835;28;20315;-65
2023/09/08 02:48:17;;;;;;;4.88;4.38;;;18.80;99.90;;;;;;5054761;28;21591;-65
2023/09/08 02:50:44;;;;;;;6.30;4.78;;;18.80;99.90;;;;;;5017140;28;20595;-65
2023/09/08 02:53:13;;;;;;;5.05;4.20;;;18.80;99.90;;;;;;5045361;28;20212;-65
2023/09/08 02:55:39;;;;;;;5.43;4.30;;;18.80;99.90;;;;;;5054345;28;20224;-65
2023/09/08 02:58:06;;;;;;;6.93;4.30;;;18.80;99.90;;;;;;5051998;28;20223;-65
2023/09/08 03:00:33;;;;;;;6.05;4.22;;;17.50;99.90;;;;;;5033521;28;21209;-65
2023/09/08 03:03:00;;;;;;;5.65;4.57;;;18.60;99.90;;;;;;5053612;28;20212;-65
2023/09/08 03:05:27;;;;;;;4.75;4.18;;;18.50;99.90;;;;;;5038179;28;20205;-64
2023/09/08 03:07:53;;;;;;;4.68;4.18;;;17.90;99.90;;;;;;4996865;28;20692;-65
2023/09/08 03:10:21;;;;;;;5.25;3.83;;;18.60;99.90;;;;;;5030216;28;21114;-65
2023/09/08 03:12:48;;;;;;;7.50;4.40;;;18.60;99.90;;;;;;5057373;28;20205;-65
2023/09/08 03:15:15;;;;;;;9.27;4.43;;;18.50;99.90;;;;;;5042835;28;20232;-65
2023/09/08 03:17:42;;;;;;;7.55;4.45;;;18.50;99.90;;;;;;5047587;28;20683;-64
2023/09/08 03:20:13;;;;;;;6.53;4.60;;;18.50;99.90;;;;;;5032948;28;20574;-65
2023/09/08 03:22:39;;;;;;;6.82;4.70;;;18.40;99.90;;;;;;5011579;28;20207;-65
2023/09/08 03:25:07;;;;;;;10.75;4.90;;;18.30;99.90;;;;;;5062864;28;20200;-65
2023/09/08 03:27:35;;;;;;;7.95;4.50;;;18.50;99.90;;;;;;5048029;28;20208;-65
2023/09/08 03:30:04;;;;;;;6.63;4.35;;;18.40;99.90;;;;;;5046165;28;20216;-65
2023/09/08 03:32:31;;;;;;;5.50;4.00;;;;;;;;;;5046571;28;20200;-65
2023/09/08 03:34:58;;;;;;;7.28;4.20;;;18.80;99.90;;;;;;5032077;28;20243;-64
2023/09/08 03:37:26;;;;;;;6.10;4.65;;;18.50;99.90;;;;;;5053018;28;20728;-64
2023/09/08 03:39:52;;;;;;;7.18;4.78;;;18.40;99.90;;;;;;5026682;28;20208;-65
2023/09/08 03:42:19;;;;;;;5.20;4.53;;;18.40;99.90;;;;;;5044764;28;20227;-65
2023/09/08 03:44:47;;;;;;;5.88;4.57;;;18.30;99.90;;;;;;5041104;28;20384;-65
2023/09/08 03:47:14;;;;;;;6.07;4.68;;;18.40;99.90;;;;;;5050443;28;20305;-64
2023/09/08 03:49:41;;;;;;;5.20;4.70;;;18.50;99.90;;;;;;5025608;28;22111;-65
2023/09/08 03:52:08;;;;;;;5.72;4.53;;;18.30;99.90;;;;;;5044227;28;20224;-65
2023/09/08 03:54:35;;;;;;;8.60;3.97;;;17.80;99.90;;;;;;5010853;28;20223;-65
2023/09/08 03:57:01;;;;;;;5.50;4.68;;;18.30;99.90;;;;;;5058499;28;20211;-65
2023/09/08 03:59:28;;;;;;;12.13;4.95;;;18.70;99.90;;;;;;5060849;28;20291;-65
2023/09/08 04:01:56;;;;;;;4.50;3.92;;;18.20;99.90;;;;;;5049793;28;20192;-65
2023/09/08 04:04:23;;;;;;;5.25;4.45;;;18.20;99.90;;;;;;5051295;28;20201;-65
2023/09/08 04:06:50;;;;;;;11.48;4.35;;;18.20;99.90;;;;;;5058372;28;20205;-64
2023/09/08 04:09:17;;;;;;;5.93;4.50;;;18.10;99.90;;;;;;5027361;28;20213;-65
2023/09/08 04:11:43;;;;;;;6.68;5.03;;;17.00;99.90;;;;;;5040519;28;20199;-65
2023/09/08 04:14:10;;;;;;;5.00;4.50;;;18.00;99.90;;;;;;5062180;28;20223;-65
2023/09/08 04:16:37;;;;;;;7.25;4.45;;;;;;;;;;5049059;28;21197;-64
2023/09/08 04:19:05;;;;;;;6.65;4.55;;;17.80;99.90;;;;;;5033097;28;22221;-65
2023/09/08 04:21:32;;;;;;;6.13;4.75;;;17.80;99.90;;;;;;5053120;28;20200;-65
2023/09/08 04:23:59;;;;;;;6.40;4.47;;;17.90;99.90;;;;;;5007167;28;20853;-65
2023/09/08 04:26:26;;;;;;;5.55;4.43;;;17.80;99.90;;;;;;5045051;28;20401;-65
2023/09/08 04:28:53;;;;;;;7.85;4.45;;;17.90;99.90;;;;;;5033469;28;21026;-64
2023/09/08 04:31:21;;;;;;;5.13;4.63;;;17.50;99.90;;;;;;5047705;28;20243;-64
2023/09/08 04:33:48;;;;;;;7.60;4.65;;;17.70;99.90;;;;;;5030221;28;20201;-65
2023/09/08 04:36:16;;;;;;;6.03;5.10;;;17.80;99.90;;;;;;5028733;28;20358;-64
2023/09/08 04:38:44;;;;;;;12.10;5.07;;;18.00;99.90;;;;;;5032899;28;21085;-65
2023/09/08 04:41:11;;;;;;;7.55;4.45;;;17.90;99.90;;;;;;5017226;28;20780;-65
2023/09/08 04:43:38;;;;;;;5.07;4.15;;;17.80;99.90;;;;;;5015934;28;20216;-65
2023/09/08 04:46:05;;;;;;;9.38;5.18;;;17.90;99.90;;;;;;5047962;28;20228;-64
2023/09/08 04:48:31;;;;;;;5.78;5.03;;;17.90;99.90;;;;;;5042327;28;20208;-64
2023/09/08 04:50:58;;;;;;;5.82;5.18;;;17.80;99.90;;;;;;5044264;28;20223;-64
2023/09/08 04:53:26;;;;;;;5.65;5.07;;;17.70;99.90;;;;;;5032832;28;20216;-65
2023/09/08 04:55:53;;;;;;;7.82;4.68;;;17.70;99.90;;;;;;5004933;28;20240;-64
2023/09/08 04:58:20;;;;;;;7.90;5.10;;;17.80;99.90;;;;;;5038723;28;20220;-64
2023/09/08 05:00:47;;;;;;;6.15;4.78;;;17.80;99.90;;;;;;5032976;28;20469;-64
2023/09/08 05:03:14;;;;;;;8.77;4.85;;;17.80;99.90;;;;;;5054525;28;20287;-64
2023/09/08 05:05:40;;;;;;;6.15;4.57;;;17.90;99.90;;;;;;5034617;28;20234;-65
2023/09/08 05:08:07;;;;;;;5.95;4.78;;;17.90;99.90;;;;;;5052230;28;20219;-64
2023/09/08 05:10:35;;;;;;;6.35;4.50;;;17.70;99.90;;;;;;5004259;28;20893;-65
2023/09/08 05:13:02;;;;;;;6.45;4.85;;;17.90;99.90;;;;;;5053974;28;21195;-64
2023/09/08 05:15:30;;;;;;;7.68;4.53;;;17.90;99.90;;;;;;5043077;28;20618;-65
2023/09/08 05:17:57;;;;;;;5.47;4.47;;;18.00;99.90;;;;;;5052095;28;20197;-64
2023/09/08 05:20:24;;;;;;;6.47;4.25;;;17.90;99.90;;;;;;5030255;28;20225;-64
2023/09/08 05:22:51;;;;;;;6.05;5.45;;;17.90;99.90;;;;;;5039144;28;20224;-65
2023/09/08 05:25:18;;;;;;;6.85;5.07;;;17.90;99.90;;;;;;5041196;28;20217;-64
2023/09/08 05:27:46;;;;;;;11.07;5.13;;;18.00;99.90;;;;;;5012300;28;25261;-65
2023/09/08 05:30:13;;;;;;;12.52;5.03;;;17.90;99.90;;;;;;5042261;28;20942;-64
2023/09/08 05:32:40;;;;;;;6.80;4.68;;;17.90;99.90;;;;;;5041431;28;20315;-65
2023/09/08 05:35:07;;;;;;;5.65;5.13;;;17.80;99.90;;;;;;5041541;28;20224;-65
2023/09/08 05:37:34;;;;;;;7.97;4.80;;;17.80;99.90;;;;;;5023832;28;20229;-65
2023/09/08 05:40:01;;;;;;;6.60;5.43;;;18.00;99.90;;;;;;5049799;28;20204;-65
2023/09/08 05:42:28;;;;;;;8.52;5.30;;;17.70;99.90;;;;;;5025772;28;20204;-64
2023/09/08 05:44:56;;;;;;;9.60;5.07;;;17.70;99.90;;;;;;5037536;28;20221;-65
2023/09/08 05:47:22;;;;;;;7.78;4.47;;;17.70;99.90;;;;;;5056544;28;20675;-64
2023/09/08 05:49:49;;;;;;;8.55;5.60;;;17.70;99.90;;;;;;5061930;28;20801;-65
2023/09/08 05:52:17;;;;;;;9.23;5.88;;;17.70;99.90;;;;;;5050575;28;20670;-65
2023/09/08 05:54:44;;;;;;;8.77;5.25;;;17.70;99.90;;;;;;5054099;28;20730;-64
2023/09/08 05:57:11;;;;;;;10.25;5.00;;;17.80;99.90;;;;;;5006188;28;20203;-64
2023/09/08 05:59:37;;;;;;;10.05;4.88;;;17.80;99.90;;;;;;5059247;28;20220;-65
2023/09/08 06:02:05;;;;;;;14.75;5.95;;;18.20;99.90;;;;;;5046663;28;20224;-65
2023/09/08 06:04:32;;;;;;;9.60;5.22;;;17.80;99.90;;;;;;5057839;28;20239;-64
2023/09/08 06:06:59;;;;;;;7.55;5.10;;;17.90;99.90;;;;;;5044147;28;20228;-64
2023/09/08 06:09:26;;;;;;;6.22;4.15;;;18.40;99.90;;;;;;5045913;28;20219;-64
2023/09/08 06:11:53;;;;;;;6.63;5.28;;;18.70;99.90;;;;;;5045696;28;20204;-65
2023/09/08 06:14:19;;;;;;;8.18;4.90;;;18.80;99.90;;;;;;5021527;28;20215;-65
2023/09/08 06:16:46;;;;;;;7.10;5.25;;;18.70;99.90;;;;;;5049467;28;20239;-64
2023/09/08 06:19:14;;;;;;;6.63;5.15;;;18.60;99.90;;;;;;5043526;28;20205;-65
2023/09/08 06:21:41;;;;;;;8.32;6.35;;;18.10;99.90;;;;;;5050391;28;20223;-64
2023/09/08 06:24:08;;;;;;;8.63;5.55;;;18.60;99.90;;;;;;5057757;28;20191;-65
2023/09/08 06:26:35;;;;;;;8.02;5.00;;;18.60;99.90;;;;;;5045094;28;20223;-64
2023/09/08 06:29:02;;;;;;;6.78;5.32;;;18.60;99.90;;;;;;5020290;28;20706;-65
2023/09/08 06:31:29;;;;;;;7.05;4.78;;;18.60;99.90;;;;;;5052871;28;20200;-64
2023/09/08 06:33:55;;;;;;;5.60;4.93;;;18.60;99.90;;;;;;5065880;28;20811;-64
2023/09/08 06:36:24;;;;;;;8.50;5.18;;;18.80;99.90;;;;;;5052482;28;20701;-65
2023/09/08 06:38:50;;;;;;;8.10;5.57;;;18.80;99.90;;;;;;5049912;28;20207;-65
2023/09/08 06:41:17;;;;;;;6.03;4.95;;;18.80;99.90;;;;;;5057822;28;20210;-65
2023/09/08 06:43:45;;;;;;;9.50;4.95;;;18.80;99.90;;;;;;5050926;28;20594;-65
2023/09/08 06:46:12;;;;;;;9.20;5.57;;;19.00;99.90;;;;;;5017859;28;20204;-65
2023/09/08 06:48:39;;;;;;;8.55;5.45;;;18.90;99.90;;;;;;5050675;28;20228;-65
2023/09/08 06:51:05;;;;;;;7.80;5.30;;;18.90;99.90;;;;;;5045625;28;20224;-64
2023/09/08 06:53:34;;;;;;;5.88;4.90;;;18.90;99.90;;;;;;5047304;28;20213;-65
2023/09/08 06:56:00;;;;;;;7.38;5.00;;;19.00;99.90;;;;;;5051634;28;20224;-64
2023/09/08 06:58:27;;;;;;;6.93;4.75;;;19.00;99.90;;;;;;5038042;28;20353;-64
2023/09/08 07:00:55;;;;;;;6.75;5.00;;;19.10;99.90;;;;;;5014663;28;20238;-64
2023/09/08 07:03:22;;;;;;;11.20;6.03;;;19.30;99.90;;;;;;5034368;28;20322;-64
2023/09/08 07:05:50;;;;;;;6.60;5.47;;;19.20;99.90;;;;;;5041715;28;20201;-65
2023/09/08 07:08:17;;;;;;;6.80;5.07;;;;;;;;;;5050186;28;20296;-65
2023/09/08 07:10:46;;;;;;;11.93;5.90;;;19.20;99.90;;;;;;5041169;28;20212;-64
2023/09/08 07:13:13;;;;;;;5.85;5.25;;;19.70;99.90;;;;;;5050925;28;20211;-65
2023/09/08 07:15:39;;;;;;;7.03;4.85;;;19.40;99.90;;;;;;5014171;28;20231;-65
2023/09/08 07:18:07;;;;;;;7.03;5.30;;;;;;;;;;5046270;28;20733;-65
2023/09/08 07:20:34;;;;;;;9.07;5.60;;;19.50;99.90;;;;;;5045398;28;20211;-65
2023/09/08 07:23:01;;;;;;;6.03;5.00;;;19.50;99.90;;;;;;5046744;28;20200;-65
2023/09/08 07:25:28;;;;;;;6.97;5.57;;;19.60;99.90;;;;;;5045313;28;20211;-65
2023/09/08 07:27:56;;;;;;;5.97;4.70;;;19.60;99.90;;;;;;5054043;28;20196;-65
2023/09/08 07:30:23;;;;;;;7.18;5.15;;;19.70;99.90;;;;;;4994805;28;21035;-65
2023/09/08 07:32:50;;;;;;;7.90;5.38;;;19.60;99.90;;;;;;5045180;28;20209;-65
2023/09/08 07:35:18;;;;;;;5.57;4.93;;;19.70;99.90;;;;;;5042492;28;20597;-65
2023/09/08 07:37:45;;;;;;;6.03;4.95;;;19.70;99.90;;;;;;5044787;28;20799;-65
2023/09/08 07:40:12;;;;;;;9.80;5.40;;;19.70;99.90;;;;;;5055179;28;20792;-64
2023/09/08 07:42:39;;;;;;;7.70;5.40;;;19.50;99.90;;;;;;5046767;28;20209;-65
2023/09/08 07:45:09;;;;;;;7.35;4.78;;;19.80;99.90;;;;;;5054022;28;20205;-65
2023/09/08 07:47:38;;;;;;;8.55;5.40;;;19.80;99.90;;;;;;5016378;28;20209;-65
2023/09/08 07:50:19;;;;;;;7.40;5.05;;;19.90;99.90;;;;;;5054213;28;20701;-64
2023/09/08 07:52:45;;;;;;;10.15;5.30;;;20.00;99.90;;;;;;5040694;28;20231;-65
2023/09/08 07:55:12;;;;;;;5.70;5.10;;;19.90;99.90;;;;;;5058382;28;20215;-65
2023/09/08 07:57:39;;;;;;;6.97;5.20;;;20.10;99.90;;;;;;5045803;28;20220;-65
2023/09/08 08:00:10;;;;;;;9.52;5.22;;;20.10;99.90;;;;;;5057509;28;20223;-65
2023/09/08 08:02:37;;;;;;;9.23;5.57;;;20.20;99.90;;;;;;5021419;28;20281;-64
2023/09/08 08:05:04;;;;;;;6.53;5.00;;;20.20;99.90;;;;;;5053242;28;20224;-65
2023/09/08 08:07:31;;;;;;;7.55;4.85;;;20.20;99.90;;;;;;5058072;28;20208;-65
2023/09/08 08:09:58;;;;;;;10.73;5.25;;;20.30;99.90;;;;;;5047545;28;20236;-65
2023/09/08 08:12:24;;;;;;;6.78;4.88;;;20.30;99.90;;;;;;5049723;28;20211;-65
2023/09/08 08:14:51;;;;;;;5.68;4.47;;;20.30;99.90;;;;;;5057444;28;21521;-65
2023/09/08 08:17:20;;;;;;;7.65;5.22;;;20.30;99.90;;;;;;5021884;28;20610;-65
2023/09/08 08:19:47;;;;;;;7.85;5.20;;;20.40;99.90;;;;;;5041364;28;20230;-65
2023/09/08 08:22:13;;;;;;;5.85;4.85;;;20.40;99.90;;;;;;5055795;28;20197;-65
2023/09/08 08:24:40;;;;;;;8.70;5.25;;;20.50;99.90;;;;;;5035537;28;20208;-66
2023/09/08 08:27:07;;;;;;;11.07;5.13;;;20.40;99.90;;;;;;5053810;28;21386;-64
2023/09/08 08:29:34;;;;;;;6.47;4.97;;;20.60;99.90;;;;;;5044616;28;20581;-65
2023/09/08 08:32:01;;;;;;;10.02;5.03;;;20.50;99.90;;;;;;5016743;28;20303;-65
2023/09/08 08:34:29;;;;;;;6.82;4.82;;;20.70;99.90;;;;;;5062936;28;20188;-65
2023/09/08 08:36:56;;;;;;;6.60;4.70;;;20.60;99.90;;;;;;5055268;28;20247;-65
2023/09/08 08:39:22;;;;;;;7.20;5.10;;;20.80;99.90;;;;;;5049187;28;20204;-66
2023/09/08 08:41:49;;;;;;;7.10;4.90;;;20.80;99.90;;;;;;5057588;28;20196;-65
2023/09/08 08:44:18;;;;;;;5.82;5.05;;;20.90;99.90;;;;;;5053429;28;20351;-65
2023/09/08 08:46:47;;;;;;;7.43;4.95;;;21.00;99.90;;;;;;5013154;28;20879;-65
2023/09/08 08:49:16;;;;;;;8.93;5.10;;;21.00;99.90;;;;;;5054297;28;20213;-65
2023/09/08 08:51:46;;;;;;;6.55;5.00;;;21.00;99.90;;;;;;5045666;28;20864;-65
2023/09/08 08:54:14;;;;;;;8.23;4.60;;;21.10;99.90;;;;;;5064768;28;20204;-65
2023/09/08 08:56:42;;;;;;;9.30;4.93;;;21.10;99.90;;;;;;5047420;28;20724;-65
2023/09/08 08:59:10;;;;;;;9.85;5.10;;;21.20;99.90;;;;;;5050044;28;20201;-65
2023/09/08 09:01:37;;;;;;;5.68;4.38;;;21.20;99.90;;;;;;5050685;28;20319;-65
2023/09/08 09:04:06;;;;;;;7.93;4.50;;;21.60;99.90;;;;;;5008561;28;20208;-65
2023/09/08 09:06:33;;;;;;;5.93;4.97;;;21.30;99.90;;;;;;5046656;28;20224;-65
2023/09/08 09:09:02;;;;;;;8.10;5.25;;;21.40;99.90;;;;;;5055361;28;20716;-65
2023/09/08 09:11:30;;;;;;;11.15;5.00;;;21.40;99.90;;;;;;5046011;28;20220;-65
2023/09/08 09:13:57;;;;;;;6.05;4.78;;;21.40;99.90;;;;;;5050157;28;20206;-65
2023/09/08 09:16:24;;;;;;;6.00;4.95;;;21.50;99.90;;;;;;5044859;28;20318;-66
2023/09/08 09:18:56;;;;;;;7.57;4.85;;;21.60;99.90;;;;;;5021220;28;20348;-66
2023/09/08 09:21:23;;;;;;;9.73;4.70;;;21.60;99.90;;;;;;5050544;28;20261;-65
2023/09/08 09:23:50;;;;;;;9.45;4.75;;;21.70;99.90;;;;;;5054368;28;20614;-65
2023/09/08 09:26:26;;;;;;;5.82;4.78;;;21.70;99.90;;;;;;5043613;28;20207;-64
2023/09/08 09:28:54;;;;;;;9.13;5.15;;;21.80;99.90;;;;;;5060384;28;20199;-64
2023/09/08 09:31:24;;;;;;;6.38;4.60;;;24.50;99.90;;;;;;5032590;28;20223;-65
2023/09/08 09:34:02;;;;;;;10.75;4.60;;;22.00;99.90;;;;;;5025188;28;20274;-65
2023/09/08 09:36:29;;;;;;;8.07;4.70;;;22.00;99.90;;;;;;5066048;28;20326;-65
2023/09/08 09:38:59;;;;;;;8.18;4.72;;;22.10;99.90;;;;;;5055954;28;20197;-64
2023/09/08 09:41:30;;;;;;;7.45;4.15;;;22.10;99.90;;;;;;5054889;28;20251;-65
2023/09/08 09:43:57;;;;;;;7.13;4.63;;;22.10;99.90;;;;;;5059995;28;20200;-64
2023/09/08 09:46:24;;;;;;;15.95;4.82;;;22.20;99.90;;;;;;5055802;28;20200;-65
2023/09/08 09:48:53;;;;;;;6.78;5.15;;;22.40;99.90;;;;;;5005992;28;20208;-65
2023/09/08 09:51:21;;;;;;;9.60;4.93;;;22.40;99.90;;;;;;5057874;28;20192;-65
2023/09/08 09:53:48;;;;;;;6.18;4.45;;;23.10;99.90;;;;;;5051223;28;20196;-65
2023/09/08 09:56:17;;;;;;;19.17;5.38;;;22.70;99.90;;;;;;5050592;28;20216;-65
2023/09/08 09:58:45;;;;;;;6.10;4.80;;;22.60;99.90;;;;;;5059001;28;20208;-65
2023/09/08 10:01:12;;;;;;;9.65;5.38;;;22.60;99.90;;;;;;5048564;28;20207;-64
2023/09/08 10:03:40;;;;;;;12.70;5.38;;;22.70;99.90;;;;;;5051470;28;20223;-65
2023/09/08 10:06:07;;;;;;;5.15;4.50;;;22.80;99.90;;;;;;5020483;28;20212;-65
2023/09/08 10:08:36;;;;;;;7.53;4.38;;;22.80;99.90;;;;;;5049797;28;20208;-65
2023/09/08 10:11:07;;;;;;;8.15;4.20;;;23.00;99.90;;;;;;5041220;28;20226;-65
2023/09/08 10:13:41;;;;;;;7.53;4.50;;;23.00;99.90;;;;;;5062129;28;20202;-65
2023/09/08 10:16:13;;;;;;;4.95;4.32;;;23.20;99.90;;;;;;5038547;28;20223;-65
2023/09/08 10:18:43;;;;;;;6.75;4.90;;;23.20;99.90;;;;;;5051040;28;20208;-64
2023/09/08 10:21:11;;;;;;;13.00;4.95;;;23.30;99.90;;;;;;5024628;28;20212;-65
2023/09/08 10:23:42;;;;;;;6.85;4.47;;;23.30;99.90;;;;;;5053725;28;20203;-64
2023/09/08 10:26:11;;;;;;;10.73;5.07;;;23.30;99.90;;;;;;5038245;28;21645;-64
2023/09/08 10:28:39;;;;;;;6.85;4.55;;;23.30;99.90;;;;;;5054536;28;20227;-65
2023/09/08 10:31:07;;;;;;;5.43;4.25;;;23.10;99.90;;;;;;5041953;28;20207;-65
2023/09/08 10:33:36;;;;;;;7.10;4.25;;;23.50;99.90;;;;;;5058895;28;20701;-65
2023/09/08 10:36:05;;;;;;;5.30;4.35;;;23.50;99.90;;;;;;5022891;28;20211;-65
2023/09/08 10:38:34;;;;;;;6.75;4.43;;;23.60;99.90;;;;;;5047800;28;20281;-65
2023/09/08 10:41:29;;;;;;;5.40;4.13;;;23.60;99.90;;;;;;5038801;28;20201;-65
2023/09/08 10:43:57;;;;;;;6.85;4.70;;;23.60;99.90;;;;;;5055889;28;20197;-65
2023/09/08 10:46:26;;;;;;;5.78;4.55;;;23.70;99.90;;;;;;5047949;28;20734;-65
2023/09/08 10:48:56;;;;;;;6.45;3.92;;;23.70;99.90;;;;;;5062481;28;20196;-64
2023/09/08 10:51:25;;;;;;;5.72;4.38;;;23.80;99.90;;;;;;5021281;28;20208;-65
2023/09/08 10:53:52;;;;;;;6.00;4.38;;;23.80;99.90;;;;;;5055151;28;20243;-65
2023/09/08 10:56:19;;;;;;;6.82;4.43;;;23.90;99.90;;;;;;5043556;28;20200;-65
2023/09/08 10:58:51;;;;;;;8.50;3.88;;;23.90;99.90;;;;;;5038025;28;20705;-64
2023/09/08 11:01:19;;;;;;;7.32;4.53;;;24.00;99.90;;;;;;5041973;28;20235;-64
2023/09/08 11:03:49;;;;;;;6.28;4.00;;;24.10;99.90;;;;;;5029536;28;20226;-64
2023/09/08 11:06:19;;;;;;;5.15;4.25;;;22.90;99.90;;;;;;5011164;28;20212;-64
2023/09/08 11:08:47;;;;;;;7.00;3.83;;;24.20;99.90;;;;;;5045110;28;20220;-65
2023/09/08 11:11:15;;;;;;;4.95;3.95;;;23.70;99.90;;;;;;5046697;28;20994;-65
2023/09/08 11:13:45;;;;;;;4.95;4.13;;;24.30;99.90;;;;;;5044146;28;20878;-64
2023/09/08 11:16:12;;;;;;;5.20;4.20;;;24.40;99.90;;;;;;5030056;28;20243;-65
2023/09/08 11:18:40;;;;;;;7.85;3.97;;;24.40;99.90;;;;;;5023577;28;20310;-65
2023/09/08 11:21:09;;;;;;;10.10;4.30;;;24.50;99.90;;;;;;4996713;28;21813;-65
2023/09/08 11:23:38;;;;;;;6.30;4.40;;;24.50;99.90;;;;;;5057949;28;20236;-65
2023/09/08 11:26:06;;;;;;;6.88;4.25;;;24.60;99.90;;;;;;5030741;28;20229;-65
2023/09/08 11:28:33;;;;;;;6.97;3.90;;;24.70;99.90;;;;;;5033324;28;20232;-65
2023/09/08 11:31:00;;;;;;;4.15;3.72;;;24.70;99.90;;;;;;5042230;28;20227;-65
2023/09/08 11:33:27;;;;;;;5.60;3.63;;;24.80;99.90;;;;;;5024737;28;20231;-65
2023/09/08 11:35:54;;;;;;;5.05;4.00;;;24.70;99.90;;;;;;5055492;28;20224;-65
2023/09/08 11:38:26;;;;;;;6.95;4.00;;;24.90;99.90;;;;;;5019397;28;20232;-65
2023/09/08 11:40:55;;;;;;;7.07;3.90;;;24.90;99.90;;;;;;5049904;28;20670;-65
2023/09/08 11:43:23;;;;;;;3.72;3.30;;;25.00;99.90;;;;;;5041219;28;20204;-66
2023/09/08 11:45:50;;;;;;;5.70;3.92;;;25.00;99.90;;;;;;5053333;28;20221;-65
2023/09/08 11:48:17;;;;;;;5.13;4.00;;;25.00;99.90;;;;;;5029298;28;20238;-66
2023/09/08 11:50:44;;;;;;;4.38;3.67;;;25.20;99.90;;;;;;5056438;28;20194;-65
2023/09/08 11:53:11;;;;;;;7.38;4.50;;;25.00;99.90;;;;;;5019418;28;20261;-65
2023/09/08 11:55:38;;;;;;;4.63;3.83;;;25.10;99.90;;;;;;5049177;28;20200;-65
2023/09/08 11:58:07;;;;;;;5.72;3.75;;;25.20;99.90;;;;;;5056896;28;20231;-65
2023/09/08 12:00:37;;;;;;;5.75;4.30;;;25.10;99.90;;;;;;5040177;28;20216;-65
2023/09/08 12:03:12;;;;;;;11.18;4.10;;;25.20;99.90;;;;;;5043481;28;20244;-65
2023/09/08 12:05:40;;;;;;;4.30;3.45;;;25.20;99.90;;;;;;5041277;28;20282;-65
2023/09/08 12:08:07;;;;;;;4.88;3.33;;;25.20;99.90;;;;;;5008873;28;20288;-65
2023/09/08 12:10:40;;;;;;;5.10;3.90;;;25.30;99.90;;;;;;5052721;28;20226;-65
2023/09/08 12:13:08;;;;;;;4.63;3.63;;;25.50;99.90;;;;;;5025017;28;21075;-65
2023/09/08 12:15:36;;;;;;;3.83;3.53;;;25.50;99.90;;;;;;5048876;28;21053;-65
2023/09/08 12:18:05;;;;;;;5.85;3.92;;;25.60;99.90;;;;;;5026389;28;20233;-65
2023/09/08 12:20:32;;;;;;;5.55;3.50;;;25.60;99.90;;;;;;5041042;28;20224;-66
2023/09/08 12:23:01;;;;;;;5.00;3.53;;;26.20;99.90;;;;;;5035733;28;20212;-66
2023/09/08 12:25:31;;;;;;;4.78;3.60;;;25.60;99.90;;;;;;5015070;28;20212;-65
2023/09/08 12:27:58;;;;;;;5.95;3.20;;;25.70;99.90;;;;;;5020607;28;20205;-65
2023/09/08 12:30:29;;;;;;;3.58;3.28;;;25.70;99.90;;;;;;5038501;28;20211;-65
2023/09/08 12:32:59;;;;;;;5.35;3.80;;;25.80;99.90;;;;;;5034922;28;20224;-66
2023/09/08 12:35:27;;;;;;;5.03;3.63;;;25.30;99.90;;;;;;5022230;28;20929;-65
2023/09/08 12:37:58;;;;;;;9.80;3.85;;;25.70;99.90;;;;;;5015846;28;20232;-66
2023/09/08 12:40:25;;;;;;;4.07;3.65;;;25.70;99.90;;;;;;5006451;28;20225;-66
2023/09/08 12:42:52;;;;;;;6.82;3.70;;;25.70;99.90;;;;;;5023607;28;20231;-66
2023/09/08 12:45:19;;;;;;;4.50;3.70;;;25.80;99.90;;;;;;5030744;28;21204;-66
2023/09/08 12:47:47;;;;;;;4.10;3.42;;;25.70;99.90;;;;;;5040582;28;20201;-66
2023/09/08 12:50:14;;;;;;;8.00;3.70;;;25.90;99.90;;;;;;5029850;28;20197;-66